createdAt,value
2022-09-22T00:01:43.417Z,6.20
2022-09-22T00:04:13.994Z,6.22
2022-09-22T00:06:47.289Z,6.27
2022-09-22T00:09:18.319Z,6.43
2022-09-22T00:11:49.314Z,6.51
2022-09-22T00:14:21.149Z,6.52
2022-09-22T00:16:52.664Z,6.50
2022-09-22T00:19:24.854Z,6.65
2022-09-22T00:21:56.068Z,6.63
2022-09-22T00:24:26.712Z,6.65
2022-09-22T00:26:57.713Z,6.70
2022-09-22T00:29:28.687Z,6.65
2022-09-22T00:32:00.268Z,6.66
2022-09-22T00:34:31.332Z,6.62
2022-09-22T00:37:02.002Z,6.60
2022-09-22T00:39:31.808Z,6.66
2022-09-22T00:42:00.870Z,6.57
2022-09-22T00:44:43.640Z,6.50
2022-09-22T00:47:38.100Z,6.47
2022-09-22T00:50:15.161Z,6.53
2022-09-22T00:52:49.610Z,6.36
2022-09-22T00:55:23.856Z,6.22
2022-09-22T00:57:54.843Z,6.08
2022-09-22T01:00:24.405Z,5.97
2022-09-22T01:02:57.614Z,5.90
2022-09-22T01:05:29.177Z,5.96
2022-09-22T01:07:59.717Z,6.04
2022-09-22T01:10:28.805Z,6.11
2022-09-22T01:13:05.959Z,6.13
2022-09-22T01:15:41.705Z,6.25
2022-09-22T01:18:22.269Z,6.17
2022-09-22T01:21:20.269Z,5.96
2022-09-22T01:24:20.442Z,5.76
2022-09-22T01:27:41.584Z,5.74
2022-09-22T01:30:22.242Z,5.73
2022-09-22T01:33:29.303Z,5.79
2022-09-22T01:36:11.277Z,5.77
2022-09-22T01:38:49.151Z,5.75
2022-09-22T01:41:24.120Z,5.72
2022-09-22T01:43:57.544Z,5.59
2022-09-22T01:46:32.117Z,5.57
2022-09-22T01:49:06.349Z,5.66
2022-09-22T01:51:41.435Z,5.52
2022-09-22T01:54:15.817Z,5.48
2022-09-22T01:56:49.381Z,5.43
2022-09-22T01:59:21.195Z,5.31
2022-09-22T02:01:57.236Z,5.36
2022-09-22T02:04:32.493Z,5.30
2022-09-22T02:07:05.737Z,5.26
2022-09-22T02:09:36.932Z,5.33
2022-09-22T02:12:06.577Z,5.40
2022-09-22T02:14:36.257Z,5.34
2022-09-22T02:17:06.707Z,5.26
2022-09-22T02:19:39.845Z,5.25
2022-09-22T02:22:11.110Z,5.27
2022-09-22T02:24:42.250Z,5.23
2022-09-22T02:27:16.129Z,5.17
2022-09-22T02:29:50.897Z,5.12
2022-09-22T02:32:22.757Z,5.05
2022-09-22T02:34:52.146Z,5.02
2022-09-22T02:37:29.034Z,4.97
2022-09-22T02:40:08.176Z,4.93
2022-09-22T02:42:43.360Z,5.07
2022-09-22T02:45:18.212Z,5.24
2022-09-22T02:47:53.105Z,5.26
2022-09-22T02:50:26.431Z,5.12
2022-09-22T02:52:59.300Z,5.17
2022-09-22T02:55:28.571Z,5.09
2022-09-22T02:57:57.520Z,5.12
2022-09-22T03:00:26.782Z,5.30
2022-09-22T03:02:57.313Z,5.23
2022-09-22T03:05:26.698Z,5.34
2022-09-22T03:07:55.630Z,5.28
2022-09-22T03:10:24.729Z,5.28
2022-09-22T03:13:14.889Z,5.52
2022-09-22T03:15:42.966Z,5.31
2022-09-22T03:18:13.470Z,5.23
2022-09-22T03:20:42.853Z,5.20
2022-09-22T03:23:11.896Z,5.25
2022-09-22T03:25:41.361Z,5.15
2022-09-22T03:28:10.413Z,5.14
2022-09-22T03:30:40.332Z,5.00
2022-09-22T03:33:09.565Z,4.92
2022-09-22T03:35:40.211Z,5.09
2022-09-22T03:38:09.392Z,5.06
2022-09-22T03:40:38.582Z,5.18
2022-09-22T03:43:07.547Z,5.31
2022-09-22T03:45:36.438Z,5.29
2022-09-22T03:48:05.643Z,5.21
2022-09-22T03:50:34.519Z,5.24
2022-09-22T03:53:04.770Z,5.17
2022-09-22T03:55:34.507Z,5.26
2022-09-22T03:58:03.780Z,5.25
2022-09-22T04:00:32.780Z,5.20
2022-09-22T04:03:01.722Z,5.10
2022-09-22T04:05:30.870Z,5.00
2022-09-22T04:08:00.098Z,4.89
2022-09-22T04:10:30.362Z,4.75
2022-09-22T04:12:59.357Z,4.67
2022-09-22T04:15:28.337Z,4.61
2022-09-22T04:17:57.381Z,4.64
2022-09-22T04:20:27.563Z,4.67
2022-09-22T04:22:56.607Z,4.69
2022-09-22T04:25:25.652Z,4.68
2022-09-22T04:27:55.934Z,4.66
2022-09-22T04:30:24.966Z,4.61
2022-09-22T04:32:54.076Z,4.58
2022-09-22T04:35:23.020Z,4.54
2022-09-22T04:37:53.137Z,4.47
2022-09-22T04:40:22.581Z,4.47
2022-09-22T04:42:51.936Z,4.42
2022-09-22T04:45:22.370Z,4.51
2022-09-22T04:47:52.766Z,4.44
2022-09-22T04:50:23.455Z,4.44
2022-09-22T04:52:54.752Z,4.42
2022-09-22T04:55:26.225Z,4.45
2022-09-22T04:57:58.185Z,4.33
2022-09-22T05:00:30.943Z,4.30
2022-09-22T05:03:02.243Z,4.26
2022-09-22T05:05:32.299Z,4.26
2022-09-22T05:08:02.462Z,4.21
2022-09-22T05:10:37.176Z,4.25
2022-09-22T05:13:08.417Z,4.25
2022-09-22T05:15:40.061Z,4.25
2022-09-22T05:18:10.700Z,4.35
2022-09-22T05:20:40.788Z,4.53
2022-09-22T05:23:11.809Z,4.40
2022-09-22T05:25:41.963Z,4.40
2022-09-22T05:28:12.615Z,4.46
2022-09-22T05:30:43.180Z,4.46
2022-09-22T05:33:12.087Z,4.59
2022-09-22T05:35:41.198Z,4.55
2022-09-22T05:38:10.393Z,4.55
2022-09-22T05:40:41.296Z,4.54
2022-09-22T05:43:10.506Z,4.50
2022-09-22T05:45:39.548Z,4.55
2022-09-22T05:48:09.986Z,4.59
2022-09-22T05:50:39.150Z,4.67
2022-09-22T05:53:10.693Z,4.77
2022-09-22T05:55:41.199Z,4.81
2022-09-22T05:58:12.747Z,4.81
2022-09-22T06:00:42.500Z,4.84
2022-09-22T06:03:12.899Z,4.89
2022-09-22T06:05:41.895Z,4.95
2022-09-22T06:08:10.849Z,4.99
2022-09-22T06:10:40.897Z,5.17
2022-09-22T06:13:11.759Z,5.21
2022-09-22T06:15:41.871Z,5.32
2022-09-22T06:18:15.324Z,5.42
2022-09-22T06:20:45.476Z,5.56
2022-09-22T06:23:15.371Z,5.64
2022-09-22T06:25:44.417Z,5.75
2022-09-22T06:28:15.591Z,5.90
2022-09-22T06:30:44.602Z,6.10
2022-09-22T06:33:14.920Z,6.12
2022-09-22T06:35:45.386Z,6.27
2022-09-22T06:38:15.852Z,6.24
2022-09-22T06:40:45.376Z,6.36
2022-09-22T06:43:22.832Z,6.51
2022-09-22T06:45:53.293Z,6.57
2022-09-22T06:48:24.305Z,6.80
2022-09-22T06:50:54.393Z,6.87
2022-09-22T06:53:26.736Z,6.91
2022-09-22T06:56:03.174Z,6.95
2022-09-22T06:58:47.021Z,7.24
2022-09-22T07:01:21.929Z,7.41
2022-09-22T07:03:52.601Z,7.45
2022-09-22T07:06:21.601Z,7.51
2022-09-22T07:08:50.843Z,7.77
2022-09-22T07:11:23.547Z,7.99
2022-09-22T07:13:54.060Z,8.14
2022-09-22T07:16:24.836Z,8.26
2022-09-22T07:18:58.289Z,8.43
2022-09-22T07:21:32.762Z,8.56
2022-09-22T07:24:01.777Z,8.69
2022-09-22T07:26:32.563Z,8.94
2022-09-22T07:29:03.220Z,9.19
2022-09-22T07:31:36.575Z,9.41
2022-09-22T07:34:07.125Z,9.54
2022-09-22T07:36:37.932Z,9.73
2022-09-22T07:39:08.512Z,9.87
2022-09-22T07:41:41.771Z,10.03
2022-09-22T07:44:44.740Z,10.17
2022-09-22T07:47:36.683Z,10.27
2022-09-22T07:50:07.777Z,10.37
2022-09-22T07:52:36.706Z,10.52
2022-09-22T07:55:06.284Z,10.61
2022-09-22T07:57:36.566Z,10.73
2022-09-22T08:00:06.238Z,10.91
2022-09-22T08:02:41.105Z,11.35
2022-09-22T08:05:11.729Z,11.96
2022-09-22T08:07:41.708Z,12.31
2022-09-22T08:10:12.214Z,12.62
2022-09-22T08:12:42.774Z,12.68
2022-09-22T08:15:13.044Z,12.89
2022-09-22T08:17:43.961Z,13.10
2022-09-22T08:20:14.292Z,13.04
2022-09-22T08:22:43.402Z,13.47
2022-09-22T08:25:13.106Z,13.62
2022-09-22T08:27:42.060Z,13.77
2022-09-22T08:30:11.947Z,13.78
2022-09-22T08:32:41.158Z,14.23
2022-09-22T08:35:11.258Z,14.30
2022-09-22T08:37:43.767Z,14.38
2022-09-22T08:40:23.682Z,14.67
2022-09-22T08:42:54.372Z,14.81
2022-09-22T08:45:32.358Z,14.49
2022-09-22T08:48:23.833Z,15.22
2022-09-22T08:51:14.251Z,14.98
2022-09-22T08:53:51.513Z,15.21
2022-09-22T08:56:30.706Z,15.38
2022-09-22T08:59:09.129Z,15.78
2022-09-22T09:01:53.794Z,15.84
2022-09-22T09:04:47.589Z,15.23
2022-09-22T09:07:27.415Z,15.66
2022-09-22T09:10:06.863Z,16.43
2022-09-22T09:12:49.396Z,15.85
2022-09-22T09:15:41.549Z,15.96
2022-09-22T09:18:17.414Z,15.77
2022-09-22T09:20:48.223Z,16.07
2022-09-22T09:23:19.647Z,16.55
2022-09-22T09:25:54.311Z,17.06
2022-09-22T09:28:31.655Z,17.03
2022-09-22T09:31:10.398Z,17.31
2022-09-22T09:33:48.214Z,17.07
2022-09-22T09:36:22.772Z,17.65
2022-09-22T09:38:55.784Z,17.23
2022-09-22T09:41:32.395Z,16.94
2022-09-22T09:44:03.515Z,17.90
2022-09-22T09:46:48.021Z,17.56
2022-09-22T09:49:20.090Z,17.07
2022-09-22T09:51:51.916Z,17.17
2022-09-22T09:54:21.721Z,18.21
2022-09-22T09:57:07.718Z,18.18
2022-09-22T09:59:56.055Z,18.23
2022-09-22T10:02:28.552Z,17.71
2022-09-22T10:04:59.874Z,17.34
2022-09-22T10:10:24.613Z,18.20
2022-09-22T10:12:56.860Z,17.99
2022-09-22T10:15:27.547Z,17.59
2022-09-22T10:17:56.484Z,17.96
2022-09-22T10:20:28.295Z,17.85
2022-09-22T10:22:57.952Z,18.13
2022-09-22T10:25:34.002Z,18.71
2022-09-22T10:28:06.882Z,19.00
2022-09-22T10:30:37.648Z,17.80
2022-09-22T10:33:22.201Z,17.94
2022-09-22T10:35:56.564Z,18.12
2022-09-22T10:38:28.973Z,18.68
2022-09-22T10:41:04.389Z,19.38
2022-09-22T10:43:42.488Z,18.69
2022-09-22T10:46:34.703Z,19.10
2022-09-22T10:49:12.153Z,18.89
2022-09-22T10:51:55.467Z,19.29
2022-09-22T10:54:51.439Z,19.31
2022-09-22T10:57:33.089Z,18.60
2022-09-22T11:00:12.484Z,19.13
2022-09-22T11:03:15.454Z,19.10
2022-09-22T11:06:21.746Z,19.80
2022-09-22T11:09:16.867Z,19.28
2022-09-22T11:12:09.116Z,19.41
2022-09-22T11:14:54.541Z,19.44
2022-09-22T11:17:38.563Z,19.81
2022-09-22T11:20:32.243Z,17.24
2022-09-22T11:23:34.682Z,17.63
2022-09-22T11:26:21.119Z,17.36
2022-09-22T11:29:12.795Z,18.93
2022-09-22T11:31:48.932Z,19.08
2022-09-22T11:34:47.080Z,18.88
2022-09-22T11:37:30.002Z,16.90
2022-09-22T11:40:27.170Z,17.78
2022-09-22T11:43:05.297Z,18.49
2022-09-22T11:45:48.104Z,19.37
2022-09-22T11:48:30.181Z,20.72
2022-09-22T11:51:27.275Z,19.43
2022-09-22T11:54:11.517Z,18.83
2022-09-22T11:56:44.542Z,20.13
2022-09-22T11:59:26.893Z,19.67
2022-09-22T12:01:58.969Z,17.94
2022-09-22T12:04:36.166Z,17.32
2022-09-22T12:07:10.325Z,16.93
2022-09-22T12:09:45.433Z,17.13
2022-09-22T12:12:20.216Z,16.04
2022-09-22T12:14:57.858Z,17.67
2022-09-22T12:17:36.705Z,19.02
2022-09-22T12:20:20.017Z,19.06
2022-09-22T12:23:12.436Z,18.65
2022-09-22T12:25:49.250Z,18.31
2022-09-22T12:28:25.660Z,17.00
2022-09-22T12:31:06.200Z,16.85
2022-09-22T12:33:38.067Z,16.78
2022-09-22T12:36:07.819Z,16.96
2022-09-22T12:38:38.839Z,16.80
2022-09-22T12:41:08.513Z,16.69
2022-09-22T12:43:38.315Z,16.35
2022-09-22T12:46:22.105Z,16.37
2022-09-22T12:48:51.568Z,16.55
2022-09-22T12:51:35.392Z,18.32
2022-09-22T12:54:47.176Z,18.11
2022-09-22T12:57:31.073Z,16.81
2022-09-22T13:00:32.214Z,18.65
2022-09-22T13:03:24.177Z,19.72
2022-09-22T13:05:56.444Z,18.54
2022-09-22T13:08:27.288Z,19.12
2022-09-22T13:10:59.348Z,18.67
2022-09-22T13:13:37.567Z,19.21
2022-09-22T13:16:37.857Z,18.20
2022-09-22T13:19:11.499Z,17.81
2022-09-22T13:21:41.978Z,18.98
2022-09-22T13:24:26.547Z,19.56
2022-09-22T13:27:05.632Z,18.03
2022-09-22T13:29:36.380Z,17.66
2022-09-22T13:32:26.517Z,17.41
2022-09-22T13:34:55.447Z,17.40
2022-09-22T13:37:26.218Z,17.25
2022-09-22T13:39:57.075Z,17.18
2022-09-22T13:42:31.242Z,16.68
2022-09-22T13:45:03.835Z,16.85
2022-09-22T13:47:33.724Z,16.98
2022-09-22T13:50:05.791Z,16.87
2022-09-22T13:52:39.318Z,16.86
2022-09-22T13:55:11.432Z,16.75
2022-09-22T13:57:41.372Z,16.83
2022-09-22T14:00:24.331Z,17.33
2022-09-22T14:02:53.768Z,17.47
2022-09-22T14:05:25.821Z,17.43
2022-09-22T14:08:12.078Z,18.57
2022-09-22T14:10:44.422Z,19.43
2022-09-22T14:13:38.823Z,19.91
2022-09-22T14:16:24.626Z,17.68
2022-09-22T14:18:59.452Z,17.21
2022-09-22T14:21:28.918Z,16.92
2022-09-22T14:24:00.069Z,19.05
2022-09-22T14:26:34.371Z,19.42
2022-09-22T14:29:18.527Z,19.54
2022-09-22T14:31:53.111Z,19.71
2022-09-22T14:34:25.648Z,19.60
2022-09-22T14:36:56.162Z,19.68
2022-09-22T14:39:33.936Z,18.26
2022-09-22T14:42:11.943Z,17.73
2022-09-22T14:44:46.134Z,17.54
2022-09-22T14:47:27.245Z,17.06
2022-09-22T14:50:10.553Z,17.16
2022-09-22T14:52:43.154Z,16.79
2022-09-22T14:55:20.339Z,17.84
2022-09-22T14:57:51.062Z,18.70
2022-09-22T15:00:40.497Z,18.22
2022-09-22T15:03:21.228Z,19.04
2022-09-22T15:05:51.324Z,18.61
2022-09-22T15:08:27.740Z,18.53
2022-09-22T15:11:00.239Z,17.45
2022-09-22T15:13:32.234Z,17.29
2022-09-22T15:16:01.233Z,17.08
2022-09-22T15:18:31.227Z,16.94
2022-09-22T15:21:06.135Z,16.86
2022-09-22T15:23:40.922Z,16.61
2022-09-22T15:26:20.683Z,17.22
2022-09-22T15:28:53.880Z,18.23
2022-09-22T15:31:26.635Z,17.92
2022-09-22T15:33:57.022Z,18.60
2022-09-22T15:36:26.439Z,17.78
2022-09-22T15:39:00.419Z,17.76
2022-09-22T15:41:31.683Z,17.05
2022-09-22T15:44:00.779Z,17.06
2022-09-22T15:46:35.146Z,17.08
2022-09-22T15:49:08.945Z,17.13
2022-09-22T15:51:37.900Z,16.80
2022-09-22T15:54:13.822Z,16.54
2022-09-22T15:56:45.069Z,16.40
2022-09-22T15:59:18.253Z,16.29
2022-09-22T16:01:47.451Z,16.11
2022-09-22T16:04:17.232Z,15.92
2022-09-22T16:06:51.104Z,15.80
2022-09-22T16:09:20.210Z,15.79
2022-09-22T16:11:50.556Z,15.60
2022-09-22T16:14:19.769Z,15.55
2022-09-22T16:16:49.082Z,15.47
2022-09-22T16:19:18.061Z,15.32
2022-09-22T16:21:51.253Z,15.24
2022-09-22T16:24:22.220Z,15.10
2022-09-22T16:26:53.513Z,15.04
2022-09-22T16:29:22.451Z,14.93
2022-09-22T16:31:51.546Z,14.92
2022-09-22T16:34:21.173Z,14.77
2022-09-22T16:36:50.070Z,14.66
2022-09-22T16:39:19.035Z,14.53
2022-09-22T16:41:48.361Z,14.45
2022-09-22T16:44:18.630Z,14.31
2022-09-22T16:46:47.577Z,14.26
2022-09-22T16:49:19.917Z,14.18
2022-09-22T16:51:50.555Z,14.10
2022-09-22T16:54:20.196Z,14.00
2022-09-22T16:56:50.860Z,13.96
2022-09-22T16:59:22.513Z,13.93
2022-09-22T17:01:51.870Z,13.85
2022-09-22T17:04:21.568Z,13.77
2022-09-22T17:06:50.884Z,13.69
2022-09-22T17:09:20.156Z,13.58
2022-09-22T17:11:50.000Z,13.48
2022-09-22T17:14:22.980Z,13.37
2022-09-22T17:16:53.464Z,13.22
2022-09-22T17:19:23.864Z,13.13
2022-09-22T17:21:55.125Z,13.03
2022-09-22T17:24:25.178Z,13.00
2022-09-22T17:26:55.800Z,12.99
2022-09-22T17:29:28.278Z,12.96
2022-09-22T17:31:59.933Z,12.94
2022-09-22T17:34:31.449Z,12.89
2022-09-22T17:37:01.221Z,12.82
2022-09-22T17:39:31.693Z,12.78
2022-09-22T17:42:00.783Z,12.70
2022-09-22T17:44:33.442Z,12.64
2022-09-22T17:47:20.245Z,12.60
2022-09-22T17:50:06.782Z,12.57
2022-09-22T17:52:53.219Z,12.52
2022-09-22T17:55:25.306Z,12.43
2022-09-22T17:57:56.306Z,12.41
2022-09-22T18:00:27.521Z,12.33
2022-09-22T18:02:56.641Z,12.25
2022-09-22T18:05:32.124Z,12.18
2022-09-22T18:08:01.201Z,12.08
2022-09-22T18:10:33.251Z,12.00
2022-09-22T18:13:04.278Z,11.91
2022-09-22T18:15:39.602Z,11.84
2022-09-22T18:18:08.610Z,11.79
2022-09-22T18:20:37.573Z,11.60
2022-09-22T18:23:07.135Z,11.64
2022-09-22T18:25:36.359Z,11.54
2022-09-22T18:28:05.586Z,11.41
2022-09-22T18:30:37.422Z,11.33
2022-09-22T18:33:06.334Z,11.29
2022-09-22T18:35:35.317Z,11.19
2022-09-22T18:38:04.403Z,11.12
2022-09-22T18:40:33.510Z,11.10
2022-09-22T18:43:02.675Z,10.97
2022-09-22T18:45:32.109Z,10.96
2022-09-22T18:48:02.809Z,10.89
2022-09-22T18:50:34.518Z,10.80
2022-09-22T18:53:03.546Z,10.73
2022-09-22T18:55:32.566Z,10.72
2022-09-22T18:58:02.110Z,10.72
2022-09-22T19:00:31.524Z,10.59
2022-09-22T19:03:01.938Z,10.56
2022-09-22T19:05:30.931Z,10.56
2022-09-22T19:08:00.875Z,10.47
2022-09-22T19:10:29.800Z,10.40
2022-09-22T19:12:59.327Z,10.31
2022-09-22T19:15:28.405Z,10.26
2022-09-22T19:17:57.394Z,10.15
2022-09-22T19:20:28.375Z,10.08
2022-09-22T19:22:57.352Z,10.09
2022-09-22T19:25:26.647Z,10.04
2022-09-22T19:27:55.960Z,10.02
2022-09-22T19:30:28.614Z,9.95
2022-09-22T19:33:00.639Z,9.86
2022-09-22T19:35:32.138Z,9.77
2022-09-22T19:38:03.559Z,9.76
2022-09-22T19:40:33.862Z,9.71
2022-09-22T19:43:03.120Z,9.63
2022-09-22T19:45:32.111Z,9.56
2022-09-22T19:48:04.504Z,9.64
2022-09-22T19:50:35.311Z,9.62
2022-09-22T19:53:04.324Z,9.69
2022-09-22T19:55:33.410Z,9.75
2022-09-22T19:58:02.345Z,9.76
2022-09-22T20:00:32.132Z,9.60
2022-09-22T20:03:01.490Z,9.54
2022-09-22T20:05:38.711Z,9.46
2022-09-22T20:08:15.489Z,9.38
2022-09-22T20:10:45.530Z,9.35
2022-09-22T20:13:28.914Z,9.29
2022-09-22T20:15:59.822Z,9.31
2022-09-22T20:18:29.769Z,9.21
2022-09-22T20:21:02.590Z,9.23
2022-09-22T20:23:31.653Z,9.19
2022-09-22T20:26:01.137Z,9.18
2022-09-22T20:28:30.419Z,9.08
2022-09-22T20:30:59.793Z,9.06
2022-09-22T20:33:29.133Z,9.04
2022-09-22T20:36:00.959Z,9.03
2022-09-22T20:38:30.980Z,9.08
2022-09-22T20:41:02.874Z,9.04
2022-09-22T20:43:32.167Z,9.11
2022-09-22T20:46:03.556Z,9.15
2022-09-22T20:48:33.108Z,9.19
2022-09-22T20:51:03.719Z,9.23
2022-09-22T20:53:35.400Z,9.29
2022-09-22T20:56:07.048Z,9.38
2022-09-22T20:58:40.387Z,9.22
2022-09-22T21:01:10.999Z,9.14
2022-09-22T21:03:40.361Z,9.12
2022-09-22T21:06:12.637Z,9.07
2022-09-22T21:09:01.019Z,8.95
2022-09-22T21:11:31.342Z,8.83
2022-09-22T21:14:03.908Z,8.75
2022-09-22T21:16:34.461Z,8.67
2022-09-22T21:19:04.702Z,8.67
2022-09-22T21:21:37.646Z,8.67
2022-09-22T21:24:08.153Z,8.69
2022-09-22T21:26:37.476Z,8.66
2022-09-22T21:29:06.722Z,8.61
2022-09-22T21:31:37.208Z,8.63
2022-09-22T21:34:06.716Z,8.74
2022-09-22T21:36:37.478Z,8.75
2022-09-22T21:39:06.845Z,8.88
2022-09-22T21:41:36.318Z,8.76
2022-09-22T21:44:06.166Z,8.76
2022-09-22T21:46:40.930Z,8.73
2022-09-22T21:49:11.599Z,8.69
2022-09-22T21:51:44.341Z,8.66
2022-09-22T21:54:15.427Z,8.65
2022-09-22T21:56:44.442Z,8.63
2022-09-22T21:59:14.257Z,8.65
2022-09-22T22:01:45.119Z,8.68
2022-09-22T22:04:15.190Z,8.65
2022-09-22T22:06:46.693Z,8.76
2022-09-22T22:09:18.358Z,8.70
2022-09-22T22:11:50.206Z,8.60
2022-09-22T22:14:20.907Z,8.66
2022-09-22T22:16:51.742Z,8.68
2022-09-22T22:19:22.142Z,8.68
2022-09-22T22:21:52.872Z,8.79
2022-09-22T22:24:35.121Z,8.87
2022-09-22T22:27:06.738Z,8.89
2022-09-22T22:29:38.451Z,8.87
2022-09-22T22:32:09.003Z,8.83
2022-09-22T22:34:38.540Z,8.86
2022-09-22T22:37:10.594Z,8.89
2022-09-22T22:39:39.517Z,8.81
2022-09-22T22:42:08.754Z,8.70
2022-09-22T22:44:37.648Z,8.62
2022-09-22T22:47:08.441Z,8.65
2022-09-22T22:49:37.429Z,8.60
2022-09-22T22:52:07.804Z,8.65
2022-09-22T22:54:36.711Z,8.73
2022-09-22T22:57:05.776Z,8.66
2022-09-22T22:59:34.737Z,8.64
2022-09-22T23:02:03.681Z,8.66
2022-09-22T23:04:32.986Z,8.59
2022-09-22T23:07:01.950Z,8.62
2022-09-22T23:09:32.186Z,8.64
2022-09-22T23:12:01.284Z,8.57
2022-09-22T23:14:30.164Z,8.61
2022-09-22T23:16:59.156Z,8.54
2022-09-22T23:19:28.213Z,8.64
2022-09-22T23:21:58.994Z,8.57
2022-09-22T23:24:27.921Z,8.62
2022-09-22T23:26:58.460Z,8.68
2022-09-22T23:29:27.472Z,8.63
2022-09-22T23:31:56.411Z,8.73
2022-09-22T23:34:25.364Z,8.64
2022-09-22T23:36:54.317Z,8.55
2022-09-22T23:39:23.473Z,8.55
2022-09-22T23:41:52.498Z,8.49
2022-09-22T23:44:22.779Z,8.49
2022-09-22T23:46:51.786Z,8.44
2022-09-22T23:49:20.875Z,8.52
2022-09-22T23:51:49.894Z,8.52
2022-09-22T23:54:18.798Z,8.51
2022-09-22T23:56:47.759Z,8.44
2022-09-22T23:59:16.682Z,8.45
